sensor_id;sensor_type;location;lat;lon;timestamp;pressure;altitude;pressure_sealevel;temperature;humidity
54453;BME280;40363;52.270;10.546;2023-02-19T00:01:13;76801.72;;;-147.06;100.00
54453;BME280;40363;52.270;10.546;2023-02-19T00:03:47;76805.84;;;-147.06;100.00
54453;BME280;40363;52.270;10.546;2023-02-19T00:06:14;76797.63;;;-147.06;100.00
54453;BME280;40363;52.270;10.546;2023-02-19T00:08:40;76785.28;;;-147.06;100.00
54453;BME280;40363;52.270;10.546;2023-02-19T00:11:10;76770.88;;;-147.06;100.00
54453;BME280;40363;52.270;10.546;2023-02-19T00:13:37;76783.22;;;-147.06;100.00
54453;BME280;40363;52.270;10.546;2023-02-19T00:16:05;76793.50;;;-147.06;100.00
54453;BME280;40363;52.270;10.546;2023-02-19T00:18:32;76814.06;;;-147.06;100.00
54453;BME280;40363;52.270;10.546;2023-02-19T00:21:00;76820.22;;;-147.06;100.00
54453;BME280;40363;52.270;10.546;2023-02-19T00:23:27;76822.28;;;-147.06;100.00
54453;BME280;40363;52.270;10.546;2023-02-19T00:25:54;76801.72;;;-147.06;100.00
54453;BME280;40363;52.270;10.546;2023-02-19T00:28:21;76785.28;;;-147.06;100.00
54453;BME280;40363;52.270;10.546;2023-02-19T00:30:47;76793.50;;;-147.06;100.00
54453;BME280;40363;52.270;10.546;2023-02-19T00:33:14;76781.16;;;-147.06;100.00
54453;BME280;40363;52.270;10.546;2023-02-19T00:35:41;76768.84;;;-147.06;100.00
54453;BME280;40363;52.270;10.546;2023-02-19T00:38:09;76764.72;;;-147.06;100.00
54453;BME280;40363;52.270;10.546;2023-02-19T00:40:37;76781.16;;;-147.06;100.00
54453;BME280;40363;52.270;10.546;2023-02-19T00:43:04;76772.94;;;-147.06;100.00
54453;BME280;40363;52.270;10.546;2023-02-19T00:45:30;76764.72;;;-147.06;100.00
54453;BME280;40363;52.270;10.546;2023-02-19T00:47:59;76768.84;;;-147.06;100.00
54453;BME280;40363;52.270;10.546;2023-02-19T00:50:25;76772.94;;;-147.06;100.00
54453;BME280;40363;52.270;10.546;2023-02-19T00:52:52;76775.00;;;-147.06;100.00
54453;BME280;40363;52.270;10.546;2023-02-19T00:55:20;76762.66;;;-147.06;100.00
54453;BME280;40363;52.270;10.546;2023-02-19T00:57:47;76772.94;;;-147.06;100.00
54453;BME280;40363;52.270;10.546;2023-02-19T01:00:13;76760.63;;;-147.06;100.00
54453;BME280;40363;52.270;10.546;2023-02-19T01:02:40;76764.72;;;-147.06;100.00
54453;BME280;40363;52.270;10.546;2023-02-19T01:05:07;76764.72;;;-147.06;100.00
54453;BME280;40363;52.270;10.546;2023-02-19T01:07:34;76756.50;;;-147.06;100.00
54453;BME280;40363;52.270;10.546;2023-02-19T01:10:01;76754.44;;;-147.06;100.00
54453;BME280;40363;52.270;10.546;2023-02-19T01:12:29;76750.34;;;-147.06;100.00
54453;BME280;40363;52.270;10.546;2023-02-19T01:14:55;76752.38;;;-147.06;100.00
54453;BME280;40363;52.270;10.546;2023-02-19T01:17:22;76740.06;;;-147.06;100.00
54453;BME280;40363;52.270;10.546;2023-02-19T01:19:49;76740.06;;;-147.06;100.00
54453;BME280;40363;52.270;10.546;2023-02-19T01:22:15;76733.88;;;-147.06;100.00
54453;BME280;40363;52.270;10.546;2023-02-19T01:24:42;76723.63;;;-147.06;100.00
54453;BME280;40363;52.270;10.546;2023-02-19T01:27:08;76723.63;;;-147.06;100.00
54453;BME280;40363;52.270;10.546;2023-02-19T01:29:36;76723.63;;;-147.06;100.00
54453;BME280;40363;52.270;10.546;2023-02-19T01:32:03;76719.50;;;-147.06;100.00
54453;BME280;40363;52.270;10.546;2023-02-19T01:34:30;76715.38;;;-147.06;100.00
54453;BME280;40363;52.270;10.546;2023-02-19T01:36:58;76715.38;;;-147.06;100.00
54453;BME280;40363;52.270;10.546;2023-02-19T01:39:24;76707.16;;;-147.06;100.00
54453;BME280;40363;52.270;10.546;2023-02-19T01:41:51;76703.06;;;-147.06;100.00
54453;BME280;40363;52.270;10.546;2023-02-19T01:47:23;76715.38;;;-147.06;100.00
54453;BME280;40363;52.270;10.546;2023-02-19T01:49:52;76735.94;;;-147.06;100.00
54453;BME280;40363;52.270;10.546;2023-02-19T01:52:22;76735.94;;;-147.06;100.00
54453;BME280;40363;52.270;10.546;2023-02-19T01:54:53;76727.72;;;-147.06;100.00
54453;BME280;40363;52.270;10.546;2023-02-19T01:57:23;76735.94;;;-147.06;100.00
54453;BME280;40363;52.270;10.546;2023-02-19T01:59:53;76744.16;;;-147.06;100.00
54453;BME280;40363;52.270;10.546;2023-02-19T02:02:20;76752.38;;;-147.06;100.00
54453;BME280;40363;52.270;10.546;2023-02-19T02:04:49;76748.28;;;-147.06;100.00
54453;BME280;40363;52.270;10.546;2023-02-19T02:07:16;76740.06;;;-147.06;100.00
54453;BME280;40363;52.270;10.546;2023-02-19T02:10:01;76742.09;;;-147.06;100.00
54453;BME280;40363;52.270;10.546;2023-02-19T02:12:48;76742.09;;;-147.06;100.00
54453;BME280;40363;52.270;10.546;2023-02-19T02:15:16;76731.84;;;-147.06;100.00
54453;BME280;40363;52.270;10.546;2023-02-19T02:17:51;76746.22;;;-147.06;100.00
54453;BME280;40363;52.270;10.546;2023-02-19T02:20:31;76750.34;;;-147.06;100.00
54453;BME280;40363;52.270;10.546;2023-02-19T02:23:00;76756.50;;;-147.06;100.00
54453;BME280;40363;52.270;10.546;2023-02-19T02:25:44;76756.50;;;-147.06;100.00
54453;BME280;40363;52.270;10.546;2023-02-19T02:28:22;76756.50;;;-147.06;100.00
54453;BME280;40363;52.270;10.546;2023-02-19T02:30:58;76746.22;;;-147.06;100.00
54453;BME280;40363;52.270;10.546;2023-02-19T02:33:34;76744.16;;;-147.06;100.00
54453;BME280;40363;52.270;10.546;2023-02-19T02:36:05;76742.09;;;-147.06;100.00
54453;BME280;40363;52.270;10.546;2023-02-19T02:38:35;76748.28;;;-147.06;100.00
54453;BME280;40363;52.270;10.546;2023-02-19T02:41:03;76740.06;;;-147.06;100.00
54453;BME280;40363;52.270;10.546;2023-02-19T02:43:31;76742.09;;;-147.06;100.00
54453;BME280;40363;52.270;10.546;2023-02-19T02:45:58;76742.09;;;-147.06;100.00
54453;BME280;40363;52.270;10.546;2023-02-19T02:48:29;76754.44;;;-147.06;100.00
54453;BME280;40363;52.270;10.546;2023-02-19T02:50:59;76744.16;;;-147.06;100.00
54453;BME280;40363;52.270;10.546;2023-02-19T02:53:32;76756.50;;;-147.06;100.00
54453;BME280;40363;52.270;10.546;2023-02-19T02:56:18;76762.66;;;-147.06;100.00
54453;BME280;40363;52.270;10.546;2023-02-19T02:58:47;76756.50;;;-147.06;100.00
54453;BME280;40363;52.270;10.546;2023-02-19T03:01:20;76760.63;;;-147.06;100.00
54453;BME280;40363;52.270;10.546;2023-02-19T03:04:09;76754.44;;;-147.06;100.00
54453;BME280;40363;52.270;10.546;2023-02-19T03:06:38;76756.50;;;-147.06;100.00
54453;BME280;40363;52.270;10.546;2023-02-19T03:09:10;76756.50;;;-147.06;100.00
54453;BME280;40363;52.270;10.546;2023-02-19T03:11:40;76758.56;;;-147.06;100.00
54453;BME280;40363;52.270;10.546;2023-02-19T03:14:30;76762.66;;;-147.06;100.00
54453;BME280;40363;52.270;10.546;2023-02-19T03:17:20;76760.63;;;-147.06;100.00
54453;BME280;40363;52.270;10.546;2023-02-19T03:20:09;76762.66;;;-147.06;100.00
54453;BME280;40363;52.270;10.546;2023-02-19T03:22:39;76772.94;;;-147.06;100.00
54453;BME280;40363;52.270;10.546;2023-02-19T03:25:09;76775.00;;;-147.06;100.00
54453;BME280;40363;52.270;10.546;2023-02-19T03:27:56;76777.06;;;-147.06;100.00
54453;BME280;40363;52.270;10.546;2023-02-19T03:30:28;76785.28;;;-147.06;100.00
54453;BME280;40363;52.270;10.546;2023-02-19T03:33:00;76779.13;;;-147.06;100.00
54453;BME280;40363;52.270;10.546;2023-02-19T03:35:30;76785.28;;;-147.06;100.00
54453;BME280;40363;52.270;10.546;2023-02-19T03:38:01;76775.00;;;-147.06;100.00
54453;BME280;40363;52.270;10.546;2023-02-19T03:40:30;76783.22;;;-147.06;100.00
54453;BME280;40363;52.270;10.546;2023-02-19T03:43:07;76797.63;;;-147.06;100.00
54453;BME280;40363;52.270;10.546;2023-02-19T03:45:43;76826.38;;;-147.06;100.00
54453;BME280;40363;52.270;10.546;2023-02-19T03:48:26;76859.28;;;-147.06;100.00
54453;BME280;40363;52.270;10.546;2023-02-19T03:51:02;76927.13;;;-147.06;100.00
54453;BME280;40363;52.270;10.546;2023-02-19T03:53:33;76968.22;;;-147.06;100.00
54453;BME280;40363;52.270;10.546;2023-02-19T03:56:07;76992.88;;;-147.06;100.00
54453;BME280;40363;52.270;10.546;2023-02-19T03:58:40;77019.63;;;-147.06;100.00
54453;BME280;40363;52.270;10.546;2023-02-19T04:01:12;77050.44;;;-147.06;100.00
54453;BME280;40363;52.270;10.546;2023-02-19T04:03:46;77079.22;;;-147.06;100.00
54453;BME280;40363;52.270;10.546;2023-02-19T04:06:16;77095.69;;;-147.06;100.00
54453;BME280;40363;52.270;10.546;2023-02-19T04:08:48;77136.78;;;-147.06;100.00
54453;BME280;40363;52.270;10.546;2023-02-19T04:11:18;77147.06;;;-147.06;100.00
54453;BME280;40363;52.270;10.546;2023-02-19T04:13:51;77169.69;;;-147.06;100.00
54453;BME280;40363;52.270;10.546;2023-02-19T04:16:25;77184.06;;;-147.06;100.00
54453;BME280;40363;52.270;10.546;2023-02-19T04:18:56;77212.84;;;-147.06;100.00
54453;BME280;40363;52.270;10.546;2023-02-19T04:21:25;77225.19;;;-147.06;100.00
54453;BME280;40363;52.270;10.546;2023-02-19T04:23:55;77239.56;;;-147.06;100.00
54453;BME280;40363;52.270;10.546;2023-02-19T04:26:24;77241.63;;;-147.06;100.00
54453;BME280;40363;52.270;10.546;2023-02-19T04:28:52;77258.06;;;-147.06;100.00
54453;BME280;40363;52.270;10.546;2023-02-19T04:31:19;77262.19;;;-147.06;100.00
54453;BME280;40363;52.270;10.546;2023-02-19T04:33:46;77268.34;;;-147.06;100.00
54453;BME280;40363;52.270;10.546;2023-02-19T04:36:14;77272.47;;;-147.06;100.00
54453;BME280;40363;52.270;10.546;2023-02-19T04:38:41;77274.53;;;-147.06;100.00
54453;BME280;40363;52.270;10.546;2023-02-19T04:41:08;77280.69;;;-147.06;100.00
54453;BME280;40363;52.270;10.546;2023-02-19T04:43:34;77286.84;;;-147.06;100.00
54453;BME280;40363;52.270;10.546;2023-02-19T04:46:01;77288.91;;;-147.06;100.00
54453;BME280;40363;52.270;10.546;2023-02-19T04:48:28;77293.03;;;-147.06;100.00
54453;BME280;40363;52.270;10.546;2023-02-19T04:50:54;77299.19;;;-147.06;100.00
54453;BME280;40363;52.270;10.546;2023-02-19T04:53:22;77297.13;;;-147.06;100.00
54453;BME280;40363;52.270;10.546;2023-02-19T04:55:49;77301.25;;;-147.06;100.00
54453;BME280;40363;52.270;10.546;2023-02-19T04:58:18;77307.41;;;-147.06;100.00
54453;BME280;40363;52.270;10.546;2023-02-19T05:00:45;77340.31;;;-147.06;100.00
54453;BME280;40363;52.270;10.546;2023-02-19T05:03:12;77336.19;;;-147.06;100.00
54453;BME280;40363;52.270;10.546;2023-02-19T05:05:38;77342.38;;;-147.06;100.00
54453;BME280;40363;52.270;10.546;2023-02-19T05:08:05;77338.25;;;-147.06;100.00
54453;BME280;40363;52.270;10.546;2023-02-19T05:10:33;77352.66;;;-147.06;100.00
54453;BME280;40363;52.270;10.546;2023-02-19T05:13:00;77360.88;;;-147.06;100.00
54453;BME280;40363;52.270;10.546;2023-02-19T05:15:26;77373.19;;;-147.06;100.00
54453;BME280;40363;52.270;10.546;2023-02-19T05:17:53;77401.97;;;-147.06;100.00
54453;BME280;40363;52.270;10.546;2023-02-19T05:20:19;77414.31;;;-147.06;100.00
54453;BME280;40363;52.270;10.546;2023-02-19T05:22:47;77414.31;;;-147.06;100.00
54453;BME280;40363;52.270;10.546;2023-02-19T05:25:13;77410.22;;;-147.06;100.00
54453;BME280;40363;52.270;10.546;2023-02-19T05:27:42;77408.16;;;-147.06;100.00
54453;BME280;40363;52.270;10.546;2023-02-19T05:30:09;77414.31;;;-147.06;100.00
54453;BME280;40363;52.270;10.546;2023-02-19T05:32:36;77426.66;;;-147.06;100.00
54453;BME280;40363;52.270;10.546;2023-02-19T05:35:03;77455.44;;;-147.06;100.00
54453;BME280;40363;52.270;10.546;2023-02-19T05:37:30;77451.31;;;-147.06;100.00
54453;BME280;40363;52.270;10.546;2023-02-19T05:39:57;77471.88;;;-147.06;100.00
54453;BME280;40363;52.270;10.546;2023-02-19T05:42:23;77486.28;;;-147.06;100.00
54453;BME280;40363;52.270;10.546;2023-02-19T05:44:51;77494.50;;;-147.06;100.00
54453;BME280;40363;52.270;10.546;2023-02-19T05:47:18;77482.16;;;-147.06;100.00
54453;BME280;40363;52.270;10.546;2023-02-19T05:49:45;77496.56;;;-147.06;100.00
54453;BME280;40363;52.270;10.546;2023-02-19T05:52:11;77517.13;;;-147.06;100.00
54453;BME280;40363;52.270;10.546;2023-02-19T05:54:38;77521.22;;;-147.06;100.00
54453;BME280;40363;52.270;10.546;2023-02-19T05:57:05;77554.13;;;-147.06;100.00
54453;BME280;40363;52.270;10.546;2023-02-19T05:59:32;77568.50;;;-147.06;100.00
54453;BME280;40363;52.270;10.546;2023-02-19T06:02:00;77572.63;;;-147.06;100.00
54453;BME280;40363;52.270;10.546;2023-02-19T06:04:26;77589.06;;;-147.06;100.00
54453;BME280;40363;52.270;10.546;2023-02-19T06:06:53;77607.56;;;-147.06;100.00
54453;BME280;40363;52.270;10.546;2023-02-19T06:09:19;77624.03;;;-147.06;100.00
54453;BME280;40363;52.270;10.546;2023-02-19T06:11:46;77624.03;;;-147.06;100.00
54453;BME280;40363;52.270;10.546;2023-02-19T06:14:13;77626.06;;;-147.06;100.00
54453;BME280;40363;52.270;10.546;2023-02-19T06:16:40;77642.53;;;-147.06;100.00
54453;BME280;40363;52.270;10.546;2023-02-19T06:19:08;77650.75;;;-147.06;100.00
54453;BME280;40363;52.270;10.546;2023-02-19T06:21:35;77658.97;;;-147.06;100.00
54453;BME280;40363;52.270;10.546;2023-02-19T06:24:05;77650.75;;;-147.06;100.00
54453;BME280;40363;52.270;10.546;2023-02-19T06:26:32;77665.13;;;-147.06;100.00
54453;BME280;40363;52.270;10.546;2023-02-19T06:28:59;77675.41;;;-147.06;100.00
54453;BME280;40363;52.270;10.546;2023-02-19T06:31:25;77681.59;;;-147.06;100.00
54453;BME280;40363;52.270;10.546;2023-02-19T06:33:52;77681.59;;;-147.06;100.00
54453;BME280;40363;52.270;10.546;2023-02-19T06:36:21;77681.59;;;-147.06;100.00
54453;BME280;40363;52.270;10.546;2023-02-19T06:38:48;77689.81;;;-147.06;100.00
54453;BME280;40363;52.270;10.546;2023-02-19T06:41:15;77700.09;;;-147.06;100.00
54453;BME280;40363;52.270;10.546;2023-02-19T06:43:42;77714.47;;;-147.06;100.00
54453;BME280;40363;52.270;10.546;2023-02-19T06:46:10;77720.66;;;-147.06;100.00
54453;BME280;40363;52.270;10.546;2023-02-19T06:48:38;77739.16;;;-147.06;100.00
54453;BME280;40363;52.270;10.546;2023-02-19T06:51:06;77730.94;;;-147.06;100.00
54453;BME280;40363;52.270;10.546;2023-02-19T06:53:34;77722.72;;;-147.06;100.00
54453;BME280;40363;52.270;10.546;2023-02-19T06:56:03;77728.88;;;-147.06;100.00
54453;BME280;40363;52.270;10.546;2023-02-19T06:58:30;77730.94;;;-147.06;100.00
54453;BME280;40363;52.270;10.546;2023-02-19T07:00:57;77743.25;;;-147.06;100.00
54453;BME280;40363;52.270;10.546;2023-02-19T07:03:23;77743.25;;;-147.06;100.00
54453;BME280;40363;52.270;10.546;2023-02-19T07:05:51;77755.59;;;-147.06;100.00
54453;BME280;40363;52.270;10.546;2023-02-19T07:08:18;77761.78;;;-147.06;100.00
54453;BME280;40363;52.270;10.546;2023-02-19T07:10:53;77763.81;;;-147.06;100.00
54453;BME280;40363;52.270;10.546;2023-02-19T07:13:20;77763.81;;;-147.06;100.00
54453;BME280;40363;52.270;10.546;2023-02-19T07:15:46;77751.50;;;-147.06;100.00
54453;BME280;40363;52.270;10.546;2023-02-19T07:18:13;77763.81;;;-147.06;100.00
54453;BME280;40363;52.270;10.546;2023-02-19T07:20:39;77767.94;;;-147.06;100.00
54453;BME280;40363;52.270;10.546;2023-02-19T07:23:06;77761.78;;;-147.06;100.00
54453;BME280;40363;52.270;10.546;2023-02-19T07:25:33;77757.66;;;-147.06;100.00
54453;BME280;40363;52.270;10.546;2023-02-19T07:28:01;77755.59;;;-147.06;100.00
54453;BME280;40363;52.270;10.546;2023-02-19T07:30:27;77759.72;;;-147.06;100.00
54453;BME280;40363;52.270;10.546;2023-02-19T07:32:54;77763.81;;;-147.06;100.00
54453;BME280;40363;52.270;10.546;2023-02-19T07:35:20;77780.28;;;-147.06;99.88
54453;BME280;40363;52.270;10.546;2023-02-19T07:37:47;77782.34;;;-147.06;100.00
54453;BME280;40363;52.270;10.546;2023-02-19T07:40:14;77763.81;;;-147.06;100.00
54453;BME280;40363;52.270;10.546;2023-02-19T07:42:40;77763.81;;;-147.06;100.00
54453;BME280;40363;52.270;10.546;2023-02-19T07:45:08;77747.38;;;-147.06;100.00
54453;BME280;40363;52.270;10.546;2023-02-19T07:47:35;77743.25;;;-147.06;100.00
54453;BME280;40363;52.270;10.546;2023-02-19T07:50:02;77730.94;;;-147.06;100.00
54453;BME280;40363;52.270;10.546;2023-02-19T07:52:29;77749.44;;;-147.06;99.48
54453;BME280;40363;52.270;10.546;2023-02-19T07:54:56;77741.22;;;-147.06;99.75
54453;BME280;40363;52.270;10.546;2023-02-19T07:57:22;77733.00;;;-147.06;99.86
54453;BME280;40363;52.270;10.546;2023-02-19T07:59:49;77718.59;;;-147.06;98.97
54453;BME280;40363;52.270;10.546;2023-02-19T08:02:18;77714.47;;;-147.06;99.04
54453;BME280;40363;52.270;10.546;2023-02-19T08:05:03;77708.31;;;-147.06;98.88
54453;BME280;40363;52.270;10.546;2023-02-19T08:07:31;77728.88;;;-147.06;98.75
54453;BME280;40363;52.270;10.546;2023-02-19T08:09:58;77716.53;;;-147.06;99.10
54453;BME280;40363;52.270;10.546;2023-02-19T08:12:38;77718.59;;;-147.06;98.20
54453;BME280;40363;52.270;10.546;2023-02-19T08:15:37;77708.31;;;-147.06;98.52
54453;BME280;40363;52.270;10.546;2023-02-19T08:18:05;77702.16;;;-147.06;97.53
54453;BME280;40363;52.270;10.546;2023-02-19T08:20:31;77693.94;;;-147.06;97.00
54453;BME280;40363;52.270;10.546;2023-02-19T08:22:58;77700.09;;;-147.06;97.06
54453;BME280;40363;52.270;10.546;2023-02-19T08:25:25;77677.47;;;-147.06;96.75
54453;BME280;40363;52.270;10.546;2023-02-19T08:27:51;77673.38;;;-147.06;95.87
54453;BME280;40363;52.270;10.546;2023-02-19T08:30:18;77675.41;;;-147.06;95.48
54453;BME280;40363;52.270;10.546;2023-02-19T08:32:44;77689.81;;;-147.06;95.43
54453;BME280;40363;52.270;10.546;2023-02-19T08:35:12;77661.03;;;-147.06;96.34
54453;BME280;40363;52.270;10.546;2023-02-19T08:37:39;77658.97;;;-147.06;96.55
54453;BME280;40363;52.270;10.546;2023-02-19T08:40:06;77661.03;;;-147.06;96.67
54453;BME280;40363;52.270;10.546;2023-02-19T08:42:33;77663.09;;;-147.06;96.17
54453;BME280;40363;52.270;10.546;2023-02-19T08:44:59;77669.25;;;-147.06;96.22
54453;BME280;40363;52.270;10.546;2023-02-19T08:47:26;77681.59;;;-147.06;95.67
54453;BME280;40363;52.270;10.546;2023-02-19T08:49:59;77708.31;;;-147.06;95.85
54453;BME280;40363;52.270;10.546;2023-02-19T08:52:27;77698.03;;;-147.06;96.24
54453;BME280;40363;52.270;10.546;2023-02-19T08:54:54;77677.47;;;-147.06;96.23
54453;BME280;40363;52.270;10.546;2023-02-19T08:57:21;77675.41;;;-147.06;96.46
54453;BME280;40363;52.270;10.546;2023-02-19T08:59:48;77669.25;;;-147.06;95.29
54453;BME280;40363;52.270;10.546;2023-02-19T09:02:15;77646.63;;;-147.06;93.49
54453;BME280;40363;52.270;10.546;2023-02-19T09:04:42;77658.97;;;-147.06;92.70
54453;BME280;40363;52.270;10.546;2023-02-19T09:07:09;77663.09;;;-147.06;92.47
54453;BME280;40363;52.270;10.546;2023-02-19T09:09:39;77665.13;;;-147.06;92.54
54453;BME280;40363;52.270;10.546;2023-02-19T09:12:07;77640.47;;;-147.06;91.98
54453;BME280;40363;52.270;10.546;2023-02-19T09:14:34;77646.63;;;-147.06;92.09
54453;BME280;40363;52.270;10.546;2023-02-19T09:17:03;77652.81;;;-147.06;91.47
54453;BME280;40363;52.270;10.546;2023-02-19T09:19:31;77652.81;;;-147.06;91.69
54453;BME280;40363;52.270;10.546;2023-02-19T09:21:58;77597.28;;;-147.06;90.35
54453;BME280;40363;52.270;10.546;2023-02-19T09:24:25;77599.34;;;-147.06;89.01
54453;BME280;40363;52.270;10.546;2023-02-19T09:26:53;77632.25;;;-147.06;90.27
54453;BME280;40363;52.270;10.546;2023-02-19T09:29:21;77636.34;;;-147.06;90.63
54453;BME280;40363;52.270;10.546;2023-02-19T09:31:49;77574.69;;;-147.06;88.21
54453;BME280;40363;52.270;10.546;2023-02-19T09:34:16;77597.28;;;-147.06;87.61
54453;BME280;40363;52.270;10.546;2023-02-19T09:36:43;77498.59;;;-147.06;83.77
54453;BME280;40363;52.270;10.546;2023-02-19T09:39:09;77443.09;;;-147.06;82.69
54453;BME280;40363;52.270;10.546;2023-02-19T09:41:45;77436.94;;;-147.06;81.14
54453;BME280;40363;52.270;10.546;2023-02-19T09:44:19;77410.22;;;-147.06;80.34
54453;BME280;40363;52.270;10.546;2023-02-19T09:46:48;77418.44;;;-147.06;79.82
54453;BME280;40363;52.270;10.546;2023-02-19T09:49:18;77488.34;;;-147.06;81.27
54453;BME280;40363;52.270;10.546;2023-02-19T09:51:48;77484.22;;;-147.06;80.36
54453;BME280;40363;52.270;10.546;2023-02-19T09:54:20;77506.84;;;-147.06;81.55
54453;BME280;40363;52.270;10.546;2023-02-19T09:56:48;77504.78;;;-147.06;80.74
54453;BME280;40363;52.270;10.546;2023-02-19T09:59:20;77500.66;;;-147.06;82.12
54453;BME280;40363;52.270;10.546;2023-02-19T10:01:48;77578.78;;;-147.06;83.68
54453;BME280;40363;52.270;10.546;2023-02-19T10:04:17;77603.47;;;-147.06;83.28
54453;BME280;40363;52.270;10.546;2023-02-19T10:06:44;77599.34;;;-147.06;83.58
54453;BME280;40363;52.270;10.546;2023-02-19T10:09:18;77521.22;;;-147.06;83.63
54453;BME280;40363;52.270;10.546;2023-02-19T10:11:48;77476.00;;;-147.06;80.53
54453;BME280;40363;52.270;10.546;2023-02-19T10:14:18;77508.88;;;-147.06;80.15
54453;BME280;40363;52.270;10.546;2023-02-19T10:16:47;77572.63;;;-147.06;81.17
54453;BME280;40363;52.270;10.546;2023-02-19T10:19:15;77589.06;;;-147.06;82.05
54453;BME280;40363;52.270;10.546;2023-02-19T10:21:42;77617.84;;;-147.06;82.75
54453;BME280;40363;52.270;10.546;2023-02-19T10:24:15;77648.69;;;-147.06;82.17
54453;BME280;40363;52.270;10.546;2023-02-19T10:26:45;77632.25;;;-147.06;80.36
54453;BME280;40363;52.270;10.546;2023-02-19T10:29:11;77578.78;;;-147.06;80.10
54453;BME280;40363;52.270;10.546;2023-02-19T10:31:39;77584.97;;;-147.06;79.51
54453;BME280;40363;52.270;10.546;2023-02-19T10:34:16;77523.28;;;-147.06;78.07
54453;BME280;40363;52.270;10.546;2023-02-19T10:36:46;77545.91;;;-147.06;78.77
54453;BME280;40363;52.270;10.546;2023-02-19T10:39:33;77605.50;;;-147.06;79.80
54453;BME280;40363;52.270;10.546;2023-02-19T10:42:03;77628.13;;;-147.06;79.54
54453;BME280;40363;52.270;10.546;2023-02-19T10:44:34;77628.13;;;-147.06;78.24
54453;BME280;40363;52.270;10.546;2023-02-19T10:47:06;77615.78;;;-147.06;79.87
54453;BME280;40363;52.270;10.546;2023-02-19T10:49:36;77510.94;;;-147.06;75.17
54453;BME280;40363;52.270;10.546;2023-02-19T10:52:11;77517.13;;;-147.06;74.41
54453;BME280;40363;52.270;10.546;2023-02-19T10:54:42;77399.94;;;-147.06;72.45
54453;BME280;40363;52.270;10.546;2023-02-19T10:57:24;77513.00;;;-147.06;74.70
54453;BME280;40363;52.270;10.546;2023-02-19T10:59:56;77591.13;;;-147.06;76.33
54453;BME280;40363;52.270;10.546;2023-02-19T11:02:25;77595.25;;;-147.06;75.41
54453;BME280;40363;52.270;10.546;2023-02-19T11:05:10;77539.72;;;-147.06;75.08
54453;BME280;40363;52.270;10.546;2023-02-19T11:07:43;77558.22;;;-147.06;75.43
54453;BME280;40363;52.270;10.546;2023-02-19T11:10:20;77576.72;;;-147.06;75.63
54453;BME280;40363;52.270;10.546;2023-02-19T11:12:48;77568.50;;;-147.06;74.24
54453;BME280;40363;52.270;10.546;2023-02-19T11:15:20;77611.69;;;-147.06;74.67
54453;BME280;40363;52.270;10.546;2023-02-19T11:18:06;77619.91;;;-147.06;76.41
54453;BME280;40363;52.270;10.546;2023-02-19T11:20:48;77603.47;;;-147.06;76.01
54453;BME280;40363;52.270;10.546;2023-02-19T11:23:17;77550.00;;;-147.06;74.63
54453;BME280;40363;52.270;10.546;2023-02-19T11:25:48;77587.00;;;-147.06;73.92
54453;BME280;40363;52.270;10.546;2023-02-19T11:28:27;77584.97;;;-147.06;73.81
54453;BME280;40363;52.270;10.546;2023-02-19T11:31:12;77603.47;;;-147.06;73.51
54453;BME280;40363;52.270;10.546;2023-02-19T11:33:44;77595.25;;;-147.06;74.30
54453;BME280;40363;52.270;10.546;2023-02-19T11:36:31;77603.47;;;-147.06;72.33
54453;BME280;40363;52.270;10.546;2023-02-19T11:39:18;77599.34;;;-147.06;72.42
54453;BME280;40363;52.270;10.546;2023-02-19T11:42:06;77630.19;;;-147.06;72.95
54453;BME280;40363;52.270;10.546;2023-02-19T11:44:47;77613.75;;;-147.06;71.39
54453;BME280;40363;52.270;10.546;2023-02-19T11:47:53;77597.28;;;-147.06;72.41
54453;BME280;40363;52.270;10.546;2023-02-19T11:50:35;77591.13;;;-147.06;72.11
54453;BME280;40363;52.270;10.546;2023-02-19T11:53:16;77578.78;;;-147.06;71.06
54453;BME280;40363;52.270;10.546;2023-02-19T11:55:55;77595.25;;;-147.06;72.63
54453;BME280;40363;52.270;10.546;2023-02-19T11:58:50;77593.19;;;-147.06;72.71
54453;BME280;40363;52.270;10.546;2023-02-19T12:01:21;77607.56;;;-147.06;72.14
54453;BME280;40363;52.270;10.546;2023-02-19T12:04:05;77626.06;;;-147.06;70.84
54453;BME280;40363;52.270;10.546;2023-02-19T12:06:49;77648.69;;;-147.06;70.89
54453;BME280;40363;52.270;10.546;2023-02-19T12:09:39;77652.81;;;-147.06;70.70
54453;BME280;40363;52.270;10.546;2023-02-19T12:12:19;77661.03;;;-147.06;70.30
54453;BME280;40363;52.270;10.546;2023-02-19T12:15:08;77644.59;;;-147.06;71.05
54453;BME280;40363;52.270;10.546;2023-02-19T12:18:02;77673.38;;;-147.06;71.27
54453;BME280;40363;52.270;10.546;2023-02-19T12:20:39;77679.53;;;-147.06;71.91
54453;BME280;40363;52.270;10.546;2023-02-19T12:23:32;77669.25;;;-147.06;71.21
54453;BME280;40363;52.270;10.546;2023-02-19T12:26:06;77636.34;;;-147.06;70.00
54453;BME280;40363;52.270;10.546;2023-02-19T12:31:43;77624.03;;;-147.06;70.26
54453;BME280;40363;52.270;10.546;2023-02-19T12:34:17;77621.97;;;-147.06;70.95
54453;BME280;40363;52.270;10.546;2023-02-19T12:36:57;77642.53;;;-147.06;70.32
54453;BME280;40363;52.270;10.546;2023-02-19T12:39:38;77619.91;;;-147.06;70.23
54453;BME280;40363;52.270;10.546;2023-02-19T12:42:12;77619.91;;;-147.06;68.90
54453;BME280;40363;52.270;10.546;2023-02-19T12:44:44;77599.34;;;-147.06;68.88
54453;BME280;40363;52.270;10.546;2023-02-19T12:47:16;77603.47;;;-147.06;68.07